createdAt,value
2022-10-16T00:01:29.934Z,100.00
2022-10-16T00:06:52.204Z,100.00
2022-10-16T00:12:16.773Z,100.00
2022-10-16T00:17:38.953Z,100.00
2022-10-16T00:23:01.374Z,100.00
2022-10-16T00:28:23.216Z,100.00
2022-10-16T00:33:45.753Z,100.00
2022-10-16T00:39:08.003Z,100.00
2022-10-16T00:44:58.901Z,100.00
2022-10-16T00:50:29.325Z,100.00
2022-10-16T00:55:54.385Z,100.00
2022-10-16T01:01:22.025Z,100.00
2022-10-16T01:07:02.653Z,100.00
2022-10-16T01:12:49.546Z,100.00
2022-10-16T01:18:26.033Z,100.00
2022-10-16T01:24:08.710Z,100.00
2022-10-16T01:29:44.967Z,100.00
2022-10-16T01:35:18.733Z,100.00
2022-10-16T01:40:46.975Z,100.00
2022-10-16T01:46:10.253Z,100.00
2022-10-16T01:51:32.566Z,100.00
2022-10-16T01:56:56.553Z,100.00
2022-10-16T02:02:21.574Z,100.00
2022-10-16T02:07:44.014Z,100.00
2022-10-16T02:13:19.666Z,100.00
2022-10-16T02:19:01.474Z,100.00
2022-10-16T02:24:40.595Z,100.00
2022-10-16T02:30:12.326Z,100.00
2022-10-16T02:35:35.606Z,100.00
2022-10-16T02:40:56.614Z,100.00
2022-10-16T02:46:20.334Z,100.00
2022-10-16T02:51:41.973Z,100.00
2022-10-16T02:57:04.214Z,100.00
2022-10-16T03:02:26.573Z,100.00
2022-10-16T03:07:48.307Z,100.00
2022-10-16T03:13:10.353Z,100.00
2022-10-16T03:18:35.166Z,100.00
2022-10-16T03:23:57.123Z,100.00
2022-10-16T03:29:19.233Z,100.00
2022-10-16T03:34:40.813Z,100.00
2022-10-16T03:40:03.127Z,100.00
2022-10-16T03:45:26.313Z,100.00
2022-10-16T03:50:49.886Z,100.00
2022-10-16T03:56:12.073Z,100.00
2022-10-16T04:01:34.675Z,100.00
2022-10-16T04:06:59.625Z,100.00
2022-10-16T04:12:24.006Z,100.00
2022-10-16T04:17:46.052Z,100.00
2022-10-16T04:23:08.315Z,100.00
2022-10-16T04:28:30.859Z,100.00
2022-10-16T04:33:55.841Z,100.00
2022-10-16T04:39:17.883Z,100.00
2022-10-16T04:44:39.526Z,100.00
2022-10-16T04:50:03.954Z,100.00
2022-10-16T04:55:26.133Z,100.00
2022-10-16T05:00:48.253Z,100.00
2022-10-16T05:06:10.245Z,100.00
2022-10-16T05:11:33.174Z,100.00
2022-10-16T05:16:54.966Z,100.00
2022-10-16T05:22:16.954Z,100.00
2022-10-16T05:27:38.906Z,100.00
2022-10-16T05:33:01.154Z,100.00
2022-10-16T05:38:23.566Z,100.00
2022-10-16T05:43:45.326Z,100.00
2022-10-16T05:49:08.506Z,100.00
2022-10-16T05:54:30.493Z,100.00
2022-10-16T05:59:52.964Z,100.00
2022-10-16T06:05:14.986Z,100.00
2022-10-16T06:10:36.685Z,100.00
2022-10-16T06:16:01.116Z,100.00
2022-10-16T06:21:27.236Z,100.00
2022-10-16T06:26:49.249Z,100.00
2022-10-16T06:32:11.990Z,100.00
2022-10-16T06:37:33.636Z,100.00
2022-10-16T06:42:58.781Z,100.00
2022-10-16T06:48:21.434Z,100.00
2022-10-16T06:54:02.238Z,100.00
2022-10-16T06:59:25.210Z,100.00
2022-10-16T07:04:47.405Z,100.00
2022-10-16T07:10:10.032Z,100.00
2022-10-16T07:15:31.866Z,100.00
2022-10-16T07:20:53.993Z,100.00
2022-10-16T07:26:16.485Z,100.00
2022-10-16T07:31:39.394Z,100.00
2022-10-16T07:37:01.314Z,97.46
2022-10-16T07:42:23.506Z,96.90
2022-10-16T07:47:45.225Z,92.73
2022-10-16T07:53:07.049Z,89.82
2022-10-16T07:58:30.056Z,87.39
2022-10-16T08:03:53.436Z,80.90
2022-10-16T08:09:16.073Z,79.49
2022-10-16T08:14:37.713Z,77.22
2022-10-16T08:19:59.658Z,75.08
2022-10-16T08:25:22.645Z,74.36
2022-10-16T08:30:44.877Z,74.58
2022-10-16T08:36:08.163Z,70.98
2022-10-16T08:41:58.067Z,70.56
2022-10-16T08:47:21.676Z,70.40
2022-10-16T08:52:45.713Z,70.56
2022-10-16T08:58:15.668Z,72.84
2022-10-16T09:03:51.165Z,71.35
2022-10-16T09:09:32.627Z,68.94
2022-10-16T09:15:00.805Z,67.42
2022-10-16T09:20:34.089Z,68.33
2022-10-16T09:25:59.166Z,66.10
2022-10-16T09:31:23.107Z,66.14
2022-10-16T09:36:48.392Z,67.19
2022-10-16T09:42:15.595Z,65.88
2022-10-16T09:47:44.084Z,66.69
2022-10-16T09:53:19.175Z,65.83
2022-10-16T09:58:50.967Z,66.02
2022-10-16T10:04:13.633Z,65.82
2022-10-16T10:09:47.416Z,66.72
2022-10-16T10:15:14.078Z,65.62
2022-10-16T10:20:40.135Z,64.79
2022-10-16T10:26:22.895Z,65.29
2022-10-16T10:32:00.465Z,64.63
2022-10-16T10:37:56.646Z,64.37
2022-10-16T10:43:46.735Z,63.70
2022-10-16T10:49:21.577Z,64.04
2022-10-16T10:55:15.945Z,64.79
2022-10-16T11:00:44.685Z,63.75
2022-10-16T11:06:26.355Z,63.60
2022-10-16T11:12:32.157Z,61.89
2022-10-16T11:18:21.097Z,63.41
2022-10-16T11:24:01.534Z,63.04
2022-10-16T11:29:32.575Z,61.67
2022-10-16T11:35:06.154Z,61.03
2022-10-16T11:40:36.835Z,62.30
2022-10-16T11:46:06.560Z,61.59
2022-10-16T11:51:39.595Z,61.65
2022-10-16T11:57:08.956Z,62.47
2022-10-16T12:02:59.027Z,62.84
2022-10-16T12:08:21.605Z,62.41
2022-10-16T12:13:44.204Z,62.47
2022-10-16T12:19:26.685Z,63.78
2022-10-16T12:24:53.616Z,63.72
2022-10-16T12:30:24.884Z,63.83
2022-10-16T12:35:47.853Z,64.00
2022-10-16T12:41:45.195Z,64.68
2022-10-16T12:47:22.618Z,63.83
2022-10-16T12:52:49.355Z,64.51
2022-10-16T12:58:50.254Z,64.85
2022-10-16T13:04:21.957Z,64.65
2022-10-16T13:10:04.485Z,64.85
2022-10-16T13:15:39.776Z,65.14
2022-10-16T13:21:24.381Z,65.97
2022-10-16T13:27:08.734Z,66.67
2022-10-16T13:32:31.513Z,66.54
2022-10-16T13:38:16.815Z,67.17
2022-10-16T13:43:43.342Z,67.70
2022-10-16T13:49:07.974Z,67.72
2022-10-16T13:54:32.904Z,68.45
2022-10-16T13:59:55.136Z,68.24
2022-10-16T14:05:17.376Z,68.84
2022-10-16T14:10:40.383Z,69.58
2022-10-16T14:16:08.375Z,69.99
2022-10-16T14:21:30.827Z,71.02
2022-10-16T14:26:52.907Z,71.78
2022-10-16T14:32:25.626Z,72.57
2022-10-16T14:37:48.095Z,73.28
2022-10-16T14:43:24.216Z,73.93
2022-10-16T14:48:52.648Z,74.81
2022-10-16T14:54:16.874Z,75.38
2022-10-16T14:59:42.344Z,75.97
2022-10-16T15:05:20.545Z,76.76
2022-10-16T15:10:45.033Z,77.29
2022-10-16T15:16:13.356Z,78.04
2022-10-16T15:21:35.494Z,78.38
2022-10-16T15:26:57.349Z,79.01
2022-10-16T15:32:19.467Z,80.05
2022-10-16T15:37:41.787Z,80.65
2022-10-16T15:43:03.775Z,81.54
2022-10-16T15:48:25.737Z,81.83
2022-10-16T15:53:47.814Z,82.91
2022-10-16T15:59:09.797Z,83.23
2022-10-16T16:04:43.305Z,83.82
2022-10-16T16:10:09.436Z,84.55
2022-10-16T16:15:34.494Z,85.41
2022-10-16T16:20:57.295Z,85.44
2022-10-16T16:26:30.987Z,86.87
2022-10-16T16:31:58.594Z,87.79
2022-10-16T16:37:20.742Z,88.16
2022-10-16T16:42:43.619Z,88.60
2022-10-16T16:48:07.375Z,88.85
2022-10-16T16:53:29.456Z,89.92
2022-10-16T16:58:53.925Z,89.92
2022-10-16T17:04:19.039Z,90.15
2022-10-16T17:09:44.438Z,91.28
2022-10-16T17:15:07.715Z,91.30
2022-10-16T17:20:35.448Z,91.97
2022-10-16T17:25:58.537Z,92.85
2022-10-16T17:31:24.417Z,93.74
2022-10-16T17:36:50.855Z,94.23
2022-10-16T17:42:13.143Z,94.54
2022-10-16T17:47:36.357Z,94.43
2022-10-16T17:52:58.627Z,95.50
2022-10-16T17:58:20.743Z,96.00
2022-10-16T18:03:43.057Z,96.29
2022-10-16T18:09:06.300Z,96.71
2022-10-16T18:14:30.604Z,96.96
2022-10-16T18:19:52.833Z,97.77
2022-10-16T18:25:14.816Z,98.61
2022-10-16T18:30:36.576Z,98.27
2022-10-16T18:36:10.062Z,98.84
2022-10-16T18:42:00.376Z,99.30
2022-10-16T18:47:22.857Z,99.84
2022-10-16T18:52:51.965Z,100.00
2022-10-16T18:58:14.676Z,100.00
2022-10-16T19:03:39.304Z,100.00
2022-10-16T19:09:01.574Z,100.00
2022-10-16T19:14:26.922Z,100.00
2022-10-16T19:19:49.176Z,100.00
2022-10-16T19:25:12.856Z,100.00
2022-10-16T19:30:39.374Z,100.00
2022-10-16T19:36:30.237Z,100.00
2022-10-16T19:41:52.353Z,100.00
2022-10-16T19:47:14.697Z,100.00
2022-10-16T19:52:37.993Z,100.00
2022-10-16T19:58:00.394Z,100.00
2022-10-16T20:03:22.776Z,100.00
2022-10-16T20:08:49.217Z,100.00
2022-10-16T20:14:11.334Z,100.00
2022-10-16T20:19:34.823Z,100.00
2022-10-16T20:24:57.025Z,100.00
2022-10-16T20:30:18.953Z,100.00
2022-10-16T20:35:46.554Z,100.00
2022-10-16T20:41:09.601Z,100.00
2022-10-16T20:46:31.849Z,100.00
2022-10-16T20:51:53.895Z,100.00
2022-10-16T20:57:15.957Z,100.00
2022-10-16T21:02:38.357Z,100.00
2022-10-16T21:08:00.368Z,100.00
2022-10-16T21:13:26.018Z,100.00
2022-10-16T21:18:50.701Z,100.00
2022-10-16T21:24:16.545Z,100.00
2022-10-16T21:29:39.343Z,100.00
2022-10-16T21:35:01.496Z,100.00
2022-10-16T21:40:25.455Z,100.00
2022-10-16T21:45:47.363Z,100.00
2022-10-16T21:51:11.354Z,100.00
2022-10-16T21:56:35.554Z,100.00
2022-10-16T22:01:57.674Z,100.00
2022-10-16T22:07:19.634Z,100.00
2022-10-16T22:12:42.394Z,100.00
2022-10-16T22:18:04.735Z,100.00
2022-10-16T22:23:26.774Z,100.00
2022-10-16T22:28:49.186Z,100.00
2022-10-16T22:34:14.518Z,100.00
2022-10-16T22:39:36.663Z,100.00
2022-10-16T22:44:58.764Z,100.00
2022-10-16T22:50:20.913Z,100.00
2022-10-16T22:55:42.983Z,100.00
2022-10-16T23:01:19.574Z,100.00
2022-10-16T23:06:41.573Z,100.00
2022-10-16T23:12:03.773Z,100.00
2022-10-16T23:17:25.694Z,100.00
2022-10-16T23:22:47.892Z,100.00
2022-10-16T23:28:10.210Z,100.00
2022-10-16T23:33:34.304Z,100.00
2022-10-16T23:38:56.594Z,100.00
2022-10-16T23:44:18.534Z,100.00
2022-10-16T23:49:40.155Z,100.00
2022-10-16T23:55:02.319Z,100.00
